createdAt,value
2017-09-11T00:01:16.274Z,67.70
2017-09-11T00:03:44.641Z,67.48
2017-09-11T00:06:13.436Z,66.88
2017-09-11T00:08:42.783Z,66.32
2017-09-11T00:11:11.198Z,66.21
2017-09-11T00:13:39.552Z,66.44
2017-09-11T00:16:09.385Z,66.51
2017-09-11T00:18:37.741Z,66.29
2017-09-11T00:21:06.876Z,66.53
2017-09-11T00:23:35.486Z,65.92
2017-09-11T00:26:04.617Z,66.10
2017-09-11T00:28:33.741Z,66.01
2017-09-11T00:31:02.446Z,66.21
2017-09-11T00:33:30.797Z,66.29
2017-09-11T00:35:59.146Z,66.37
2017-09-11T00:38:29.619Z,65.75
2017-09-11T00:40:57.953Z,65.57
2017-09-11T00:43:27.081Z,65.21
2017-09-11T00:45:55.871Z,65.40
2017-09-11T00:48:25.885Z,65.11
2017-09-11T00:50:54.214Z,65.03
2017-09-11T00:53:22.857Z,64.98
2017-09-11T00:55:51.197Z,64.55
2017-09-11T00:58:19.539Z,64.39
2017-09-11T01:00:48.602Z,64.41
2017-09-11T01:03:17.025Z,63.96
2017-09-11T01:05:45.438Z,63.87
2017-09-11T01:08:14.994Z,63.58
2017-09-11T01:10:43.691Z,63.72
2017-09-11T01:13:12.571Z,63.87
2017-09-11T01:15:41.281Z,63.75
2017-09-11T01:18:09.626Z,63.25
2017-09-11T01:20:38.567Z,63.68
2017-09-11T01:23:07.631Z,63.05
2017-09-11T01:25:36.898Z,63.16
2017-09-11T01:28:05.525Z,63.34
2017-09-11T01:30:34.988Z,63.25
2017-09-11T01:33:04.900Z,63.27
2017-09-11T01:35:34.004Z,63.85
2017-09-11T01:38:03.611Z,63.54
2017-09-11T01:40:31.959Z,63.51
2017-09-11T01:43:01.168Z,63.67
2017-09-11T01:45:30.077Z,63.73
2017-09-11T01:47:58.419Z,63.73
2017-09-11T01:50:26.761Z,63.82
2017-09-11T01:52:55.368Z,63.57
2017-09-11T01:55:23.707Z,63.15
2017-09-11T01:57:52.042Z,63.43
2017-09-11T02:00:22.086Z,63.93
2017-09-11T02:02:51.764Z,63.42
2017-09-11T02:05:20.093Z,63.39
2017-09-11T02:07:49.874Z,63.95
2017-09-11T02:10:18.981Z,63.50
2017-09-11T02:12:47.329Z,63.23
2017-09-11T02:15:16.147Z,62.82
2017-09-11T02:17:44.529Z,63.17
2017-09-11T02:20:13.890Z,63.43
2017-09-11T02:22:42.638Z,63.39
2017-09-11T02:25:10.981Z,63.43
2017-09-11T02:27:39.968Z,63.96
2017-09-11T02:30:09.924Z,63.08
2017-09-11T02:32:38.252Z,63.01
2017-09-11T02:35:07.387Z,63.23
2017-09-11T02:37:37.815Z,63.04
2017-09-11T02:40:06.196Z,63.48
2017-09-11T02:42:35.302Z,63.21
2017-09-11T02:45:04.121Z,63.00
2017-09-11T02:47:33.343Z,63.03
2017-09-11T02:50:02.539Z,62.91
2017-09-11T02:52:31.846Z,63.47
2017-09-11T02:55:00.554Z,63.55
2017-09-11T02:57:29.704Z,62.84
2017-09-11T02:59:58.466Z,62.89
2017-09-11T03:02:28.002Z,63.01
2017-09-11T03:04:56.331Z,63.21
2017-09-11T03:07:25.782Z,63.10
2017-09-11T03:09:54.134Z,63.36
2017-09-11T03:12:22.689Z,63.16
2017-09-11T03:14:51.805Z,63.38
2017-09-11T03:17:20.236Z,63.17
2017-09-11T03:19:48.577Z,63.57
2017-09-11T03:22:17.189Z,63.91
2017-09-11T03:24:46.474Z,63.63
2017-09-11T03:27:15.537Z,63.69
2017-09-11T03:29:45.828Z,63.32
2017-09-11T03:32:15.680Z,63.26
2017-09-11T03:34:44.790Z,63.09
2017-09-11T03:37:13.658Z,63.56
2017-09-11T03:39:42.005Z,63.41
2017-09-11T03:42:12.093Z,63.23
2017-09-11T03:44:40.779Z,63.25
2017-09-11T03:47:09.142Z,63.41
2017-09-11T03:49:37.630Z,63.33
2017-09-11T03:52:07.098Z,62.96
2017-09-11T03:54:36.369Z,63.13
2017-09-11T03:57:04.698Z,63.41
2017-09-11T03:59:34.335Z,62.83
2017-09-11T04:02:02.890Z,62.85
2017-09-11T04:04:31.794Z,63.16
2017-09-11T04:07:00.462Z,62.58
2017-09-11T04:09:28.781Z,62.62
2017-09-11T04:11:57.163Z,62.34
2017-09-11T04:14:25.795Z,62.48
2017-09-11T04:16:54.128Z,62.71
2017-09-11T04:19:22.487Z,62.88
2017-09-11T04:21:51.535Z,62.53
2017-09-11T04:24:19.882Z,62.76
2017-09-11T04:26:48.634Z,62.19
2017-09-11T04:29:19.413Z,62.60
2017-09-11T04:31:48.185Z,62.59
2017-09-11T04:34:17.760Z,62.40
2017-09-11T04:36:47.505Z,62.94
2017-09-11T04:39:15.835Z,62.91
2017-09-11T04:41:44.182Z,62.94
2017-09-11T04:44:13.015Z,62.89
2017-09-11T04:46:42.317Z,63.07
2017-09-11T04:49:10.666Z,62.54
2017-09-11T04:51:40.213Z,62.88
2017-09-11T04:54:09.453Z,63.35
2017-09-11T04:56:39.899Z,62.93
2017-09-11T04:59:08.907Z,63.45
2017-09-11T05:01:37.280Z,63.57
2017-09-11T05:04:06.524Z,63.73
2017-09-11T05:06:35.298Z,63.44
2017-09-11T05:09:03.633Z,63.39
2017-09-11T05:11:32.072Z,63.61
2017-09-11T05:14:01.525Z,65.23
2017-09-11T05:16:30.006Z,65.19
2017-09-11T05:18:59.380Z,65.30
2017-09-11T05:21:28.254Z,66.19
2017-09-11T05:23:56.665Z,67.27
2017-09-11T05:26:24.994Z,67.40
2017-09-11T05:28:54.093Z,67.95
2017-09-11T05:31:22.636Z,67.33
2017-09-11T05:33:51.857Z,67.02
2017-09-11T05:36:21.344Z,67.47
2017-09-11T21:41:42.274Z,64.63
2017-09-11T21:44:10.609Z,64.39
2017-09-11T21:46:38.951Z,64.25
2017-09-11T21:49:08.749Z,63.50
2017-09-11T21:51:37.166Z,64.20
2017-09-11T21:54:06.032Z,64.64
2017-09-11T21:56:34.889Z,64.29
2017-09-11T21:59:03.228Z,64.90
2017-09-11T22:01:31.580Z,65.20
2017-09-11T22:04:00.677Z,65.21
2017-09-11T22:06:29.349Z,65.28
2017-09-11T22:08:58.209Z,65.06
2017-09-11T22:11:27.735Z,65.49
2017-09-11T22:13:56.967Z,65.39
2017-09-11T22:16:25.330Z,65.56
2017-09-11T22:18:54.231Z,65.18
2017-09-11T22:21:23.409Z,64.96
2017-09-11T22:23:53.068Z,65.00
2017-09-11T22:26:22.726Z,65.14
2017-09-11T22:28:51.060Z,65.09
2017-09-11T22:31:19.409Z,64.54
2017-09-11T22:33:48.102Z,65.62
2017-09-11T22:36:16.464Z,65.26
2017-09-11T22:38:44.806Z,65.59
2017-09-11T22:41:14.516Z,65.58
2017-09-11T22:43:43.643Z,65.58
2017-09-11T22:46:12.213Z,65.75
2017-09-11T22:48:41.503Z,66.02
2017-09-11T22:51:09.890Z,66.07
2017-09-11T22:53:39.082Z,67.09
2017-09-11T22:56:07.753Z,66.28
2017-09-11T22:58:37.093Z,66.15
2017-09-11T23:01:05.465Z,67.07
2017-09-11T23:03:34.083Z,67.47
2017-09-11T23:06:03.758Z,67.14
2017-09-11T23:08:32.090Z,67.41
2017-09-11T23:11:01.121Z,67.24
2017-09-11T23:13:30.151Z,67.05
2017-09-11T23:15:58.478Z,67.16
2017-09-11T23:18:27.159Z,67.40
2017-09-11T23:20:56.724Z,66.87
2017-09-11T23:23:25.069Z,67.66
2017-09-11T23:25:54.678Z,67.54
2017-09-11T23:28:23.009Z,67.82
2017-09-11T23:30:51.364Z,66.93
2017-09-11T23:33:20.419Z,67.37
2017-09-11T23:35:49.852Z,68.71
2017-09-11T23:38:19.106Z,68.37
2017-09-11T23:40:47.806Z,67.96
2017-09-11T23:43:16.925Z,68.03
2017-09-11T23:45:45.298Z,67.95
2017-09-11T23:48:14.847Z,68.35
2017-09-11T23:50:43.933Z,68.38
2017-09-11T23:53:12.560Z,68.73
2017-09-11T23:55:43.814Z,68.55
2017-09-11T23:58:13.763Z,68.48
